sensor_id;sensor_type;location;lat;lon;timestamp;P1;durP1;ratioP1;P2;durP2;ratioP2
80983;SDS011;73733;53.046;8.724;2024-03-08T00:01:43;7.80;;;4.88;;
80983;SDS011;73733;53.046;8.724;2024-03-08T00:04:10;8.35;;;5.40;;
80983;SDS011;73733;53.046;8.724;2024-03-08T00:06:35;7.40;;;4.63;;
80983;SDS011;73733;53.046;8.724;2024-03-08T00:09:00;10.30;;;5.23;;
80983;SDS011;73733;53.046;8.724;2024-03-08T00:11:26;7.87;;;4.60;;
80983;SDS011;73733;53.046;8.724;2024-03-08T00:13:51;7.57;;;4.93;;
80983;SDS011;73733;53.046;8.724;2024-03-08T00:16:18;8.35;;;4.88;;
80983;SDS011;73733;53.046;8.724;2024-03-08T00:18:44;8.68;;;5.43;;
80983;SDS011;73733;53.046;8.724;2024-03-08T00:21:10;11.02;;;4.72;;
80983;SDS011;73733;53.046;8.724;2024-03-08T00:23:36;8.07;;;4.47;;
80983;SDS011;73733;53.046;8.724;2024-03-08T00:26:02;7.67;;;4.50;;
80983;SDS011;73733;53.046;8.724;2024-03-08T00:28:29;8.52;;;4.70;;
80983;SDS011;73733;53.046;8.724;2024-03-08T00:30:55;7.07;;;4.55;;
80983;SDS011;73733;53.046;8.724;2024-03-08T00:33:21;9.83;;;4.20;;
80983;SDS011;73733;53.046;8.724;2024-03-08T00:35:46;7.72;;;4.70;;
80983;SDS011;73733;53.046;8.724;2024-03-08T00:38:12;7.50;;;4.88;;
80983;SDS011;73733;53.046;8.724;2024-03-08T00:40:38;7.78;;;4.00;;
80983;SDS011;73733;53.046;8.724;2024-03-08T00:43:03;8.60;;;4.43;;
80983;SDS011;73733;53.046;8.724;2024-03-08T00:45:29;7.13;;;4.68;;
80983;SDS011;73733;53.046;8.724;2024-03-08T00:47:54;8.88;;;6.32;;
80983;SDS011;73733;53.046;8.724;2024-03-08T00:50:20;6.90;;;4.10;;
80983;SDS011;73733;53.046;8.724;2024-03-08T00:52:45;8.73;;;5.03;;
80983;SDS011;73733;53.046;8.724;2024-03-08T00:55:11;9.27;;;5.03;;
80983;SDS011;73733;53.046;8.724;2024-03-08T00:57:37;7.60;;;4.15;;
80983;SDS011;73733;53.046;8.724;2024-03-08T01:00:04;7.47;;;5.00;;
80983;SDS011;73733;53.046;8.724;2024-03-08T01:02:34;10.05;;;4.85;;
80983;SDS011;73733;53.046;8.724;2024-03-08T01:05:00;7.45;;;5.13;;
80983;SDS011;73733;53.046;8.724;2024-03-08T01:07:26;7.35;;;4.07;;
80983;SDS011;73733;53.046;8.724;2024-03-08T01:09:51;9.27;;;4.77;;
80983;SDS011;73733;53.046;8.724;2024-03-08T01:12:16;8.67;;;5.20;;
80983;SDS011;73733;53.046;8.724;2024-03-08T01:14:42;7.47;;;5.13;;
80983;SDS011;73733;53.046;8.724;2024-03-08T01:17:07;8.57;;;5.67;;
80983;SDS011;73733;53.046;8.724;2024-03-08T01:19:34;7.72;;;4.28;;
80983;SDS011;73733;53.046;8.724;2024-03-08T01:21:59;7.03;;;4.43;;
80983;SDS011;73733;53.046;8.724;2024-03-08T01:24:25;7.47;;;4.60;;
80983;SDS011;73733;53.046;8.724;2024-03-08T01:26:50;6.22;;;4.85;;
80983;SDS011;73733;53.046;8.724;2024-03-08T01:29:15;6.47;;;4.17;;
80983;SDS011;73733;53.046;8.724;2024-03-08T01:31:41;8.77;;;4.87;;
80983;SDS011;73733;53.046;8.724;2024-03-08T01:34:06;8.87;;;4.50;;
80983;SDS011;73733;53.046;8.724;2024-03-08T01:36:31;6.30;;;4.23;;
80983;SDS011;73733;53.046;8.724;2024-03-08T01:38:56;9.27;;;4.97;;
80983;SDS011;73733;53.046;8.724;2024-03-08T01:41:22;10.38;;;5.40;;
80983;SDS011;73733;53.046;8.724;2024-03-08T01:43:48;8.30;;;4.70;;
80983;SDS011;73733;53.046;8.724;2024-03-08T01:46:17;7.72;;;4.55;;
80983;SDS011;73733;53.046;8.724;2024-03-08T01:48:44;10.52;;;4.95;;
80983;SDS011;73733;53.046;8.724;2024-03-08T01:51:10;10.15;;;4.68;;
80983;SDS011;73733;53.046;8.724;2024-03-08T01:53:36;8.07;;;4.82;;
80983;SDS011;73733;53.046;8.724;2024-03-08T01:56:02;7.32;;;4.45;;
80983;SDS011;73733;53.046;8.724;2024-03-08T01:58:28;6.75;;;4.47;;
80983;SDS011;73733;53.046;8.724;2024-03-08T02:00:54;7.22;;;4.07;;
80983;SDS011;73733;53.046;8.724;2024-03-08T02:03:22;8.65;;;5.53;;
80983;SDS011;73733;53.046;8.724;2024-03-08T02:05:48;7.10;;;4.70;;
80983;SDS011;73733;53.046;8.724;2024-03-08T02:08:13;7.43;;;4.05;;
80983;SDS011;73733;53.046;8.724;2024-03-08T02:10:40;7.88;;;4.57;;
80983;SDS011;73733;53.046;8.724;2024-03-08T02:13:11;8.70;;;4.35;;
80983;SDS011;73733;53.046;8.724;2024-03-08T02:15:52;7.68;;;4.68;;
80983;SDS011;73733;53.046;8.724;2024-03-08T02:18:22;8.02;;;4.15;;
80983;SDS011;73733;53.046;8.724;2024-03-08T02:20:51;9.25;;;4.63;;
80983;SDS011;73733;53.046;8.724;2024-03-08T02:23:20;9.27;;;4.93;;
80983;SDS011;73733;53.046;8.724;2024-03-08T02:25:46;7.65;;;4.22;;
80983;SDS011;73733;53.046;8.724;2024-03-08T02:28:14;7.50;;;4.78;;
80983;SDS011;73733;53.046;8.724;2024-03-08T02:30:40;8.52;;;4.28;;
80983;SDS011;73733;53.046;8.724;2024-03-08T02:33:05;7.63;;;4.82;;
80983;SDS011;73733;53.046;8.724;2024-03-08T02:35:32;7.95;;;4.38;;
80983;SDS011;73733;53.046;8.724;2024-03-08T02:37:57;7.50;;;5.05;;
80983;SDS011;73733;53.046;8.724;2024-03-08T02:40:23;7.10;;;4.53;;
80983;SDS011;73733;53.046;8.724;2024-03-08T02:42:48;10.40;;;5.35;;
80983;SDS011;73733;53.046;8.724;2024-03-08T02:45:14;8.17;;;4.83;;
80983;SDS011;73733;53.046;8.724;2024-03-08T02:47:39;8.60;;;4.77;;
80983;SDS011;73733;53.046;8.724;2024-03-08T02:50:05;8.13;;;4.83;;
80983;SDS011;73733;53.046;8.724;2024-03-08T02:52:32;8.43;;;5.57;;
80983;SDS011;73733;53.046;8.724;2024-03-08T02:54:58;8.85;;;5.05;;
80983;SDS011;73733;53.046;8.724;2024-03-08T02:57:23;8.90;;;4.40;;
80983;SDS011;73733;53.046;8.724;2024-03-08T02:59:53;7.90;;;4.22;;
80983;SDS011;73733;53.046;8.724;2024-03-08T03:02:18;8.38;;;4.85;;
80983;SDS011;73733;53.046;8.724;2024-03-08T03:04:44;8.15;;;4.63;;
80983;SDS011;73733;53.046;8.724;2024-03-08T03:07:09;7.87;;;4.60;;
80983;SDS011;73733;53.046;8.724;2024-03-08T03:09:34;8.90;;;4.27;;
80983;SDS011;73733;53.046;8.724;2024-03-08T03:12:00;10.63;;;4.70;;
80983;SDS011;73733;53.046;8.724;2024-03-08T03:14:25;9.67;;;5.63;;
80983;SDS011;73733;53.046;8.724;2024-03-08T03:16:53;7.68;;;4.78;;
80983;SDS011;73733;53.046;8.724;2024-03-08T03:19:19;10.05;;;5.90;;
80983;SDS011;73733;53.046;8.724;2024-03-08T03:21:47;7.60;;;4.75;;
80983;SDS011;73733;53.046;8.724;2024-03-08T03:24:13;8.07;;;4.43;;
80983;SDS011;73733;53.046;8.724;2024-03-08T03:26:41;7.18;;;4.28;;
80983;SDS011;73733;53.046;8.724;2024-03-08T03:29:08;9.63;;;4.65;;
80983;SDS011;73733;53.046;8.724;2024-03-08T03:31:34;8.27;;;5.13;;
80983;SDS011;73733;53.046;8.724;2024-03-08T03:34:01;8.48;;;4.78;;
80983;SDS011;73733;53.046;8.724;2024-03-08T03:38:54;7.63;;;4.35;;
80983;SDS011;73733;53.046;8.724;2024-03-08T03:41:30;8.52;;;4.45;;
80983;SDS011;73733;53.046;8.724;2024-03-08T03:43:55;8.82;;;4.30;;
80983;SDS011;73733;53.046;8.724;2024-03-08T03:46:20;9.27;;;4.90;;
80983;SDS011;73733;53.046;8.724;2024-03-08T03:48:46;10.23;;;5.50;;
80983;SDS011;73733;53.046;8.724;2024-03-08T03:51:11;8.27;;;4.77;;
80983;SDS011;73733;53.046;8.724;2024-03-08T03:53:37;7.82;;;4.97;;
80983;SDS011;73733;53.046;8.724;2024-03-08T03:56:02;8.40;;;4.73;;
80983;SDS011;73733;53.046;8.724;2024-03-08T03:58:31;7.75;;;4.78;;
80983;SDS011;73733;53.046;8.724;2024-03-08T04:00:57;7.05;;;4.40;;
80983;SDS011;73733;53.046;8.724;2024-03-08T04:03:22;5.72;;;3.58;;
80983;SDS011;73733;53.046;8.724;2024-03-08T04:05:48;7.88;;;4.47;;
80983;SDS011;73733;53.046;8.724;2024-03-08T04:08:13;7.47;;;4.05;;
80983;SDS011;73733;53.046;8.724;2024-03-08T04:10:39;7.17;;;4.60;;
80983;SDS011;73733;53.046;8.724;2024-03-08T04:13:06;7.22;;;4.43;;
80983;SDS011;73733;53.046;8.724;2024-03-08T04:15:32;6.90;;;4.47;;
80983;SDS011;73733;53.046;8.724;2024-03-08T04:17:57;6.83;;;4.37;;
80983;SDS011;73733;53.046;8.724;2024-03-08T04:20:22;8.07;;;4.88;;
80983;SDS011;73733;53.046;8.724;2024-03-08T04:22:48;8.50;;;4.23;;
80983;SDS011;73733;53.046;8.724;2024-03-08T04:25:14;8.73;;;5.03;;
80983;SDS011;73733;53.046;8.724;2024-03-08T04:27:39;7.85;;;4.88;;
80983;SDS011;73733;53.046;8.724;2024-03-08T04:30:05;8.05;;;4.82;;
80983;SDS011;73733;53.046;8.724;2024-03-08T04:32:34;7.10;;;4.97;;
80983;SDS011;73733;53.046;8.724;2024-03-08T04:34:59;9.27;;;5.18;;
80983;SDS011;73733;53.046;8.724;2024-03-08T04:37:26;9.77;;;5.10;;
80983;SDS011;73733;53.046;8.724;2024-03-08T04:39:54;7.88;;;4.88;;
80983;SDS011;73733;53.046;8.724;2024-03-08T04:42:22;7.83;;;4.30;;
80983;SDS011;73733;53.046;8.724;2024-03-08T04:44:48;8.25;;;5.07;;
80983;SDS011;73733;53.046;8.724;2024-03-08T04:47:13;9.47;;;4.73;;
80983;SDS011;73733;53.046;8.724;2024-03-08T04:49:38;8.45;;;4.68;;
80983;SDS011;73733;53.046;8.724;2024-03-08T04:52:04;8.07;;;4.73;;
80983;SDS011;73733;53.046;8.724;2024-03-08T04:54:30;8.30;;;5.53;;
80983;SDS011;73733;53.046;8.724;2024-03-08T04:56:55;8.00;;;5.13;;
80983;SDS011;73733;53.046;8.724;2024-03-08T04:59:21;9.43;;;5.05;;
80983;SDS011;73733;53.046;8.724;2024-03-08T05:01:46;7.70;;;4.53;;
80983;SDS011;73733;53.046;8.724;2024-03-08T05:04:12;8.23;;;4.75;;
80983;SDS011;73733;53.046;8.724;2024-03-08T05:06:37;9.23;;;5.65;;
80983;SDS011;73733;53.046;8.724;2024-03-08T05:09:03;9.07;;;4.77;;
80983;SDS011;73733;53.046;8.724;2024-03-08T05:11:38;9.00;;;4.75;;
80983;SDS011;73733;53.046;8.724;2024-03-08T05:14:10;8.52;;;4.80;;
80983;SDS011;73733;53.046;8.724;2024-03-08T05:16:35;9.18;;;5.55;;
80983;SDS011;73733;53.046;8.724;2024-03-08T05:19:01;7.43;;;4.75;;
80983;SDS011;73733;53.046;8.724;2024-03-08T05:21:26;10.10;;;5.00;;
80983;SDS011;73733;53.046;8.724;2024-03-08T05:23:52;9.97;;;6.10;;
80983;SDS011;73733;53.046;8.724;2024-03-08T05:26:17;8.17;;;5.03;;
80983;SDS011;73733;53.046;8.724;2024-03-08T05:28:42;8.70;;;4.57;;
80983;SDS011;73733;53.046;8.724;2024-03-08T05:31:08;9.18;;;4.63;;
80983;SDS011;73733;53.046;8.724;2024-03-08T05:33:33;8.45;;;5.18;;
80983;SDS011;73733;53.046;8.724;2024-03-08T05:36:01;8.48;;;4.82;;
80983;SDS011;73733;53.046;8.724;2024-03-08T05:38:27;11.25;;;5.60;;
80983;SDS011;73733;53.046;8.724;2024-03-08T05:40:53;8.85;;;5.07;;
80983;SDS011;73733;53.046;8.724;2024-03-08T05:43:19;8.45;;;4.85;;
80983;SDS011;73733;53.046;8.724;2024-03-08T05:45:44;7.82;;;5.03;;
80983;SDS011;73733;53.046;8.724;2024-03-08T05:48:10;8.77;;;5.45;;
80983;SDS011;73733;53.046;8.724;2024-03-08T05:50:37;9.90;;;5.30;;
80983;SDS011;73733;53.046;8.724;2024-03-08T05:53:03;11.38;;;5.28;;
80983;SDS011;73733;53.046;8.724;2024-03-08T05:55:31;11.25;;;5.32;;
80983;SDS011;73733;53.046;8.724;2024-03-08T05:58:00;11.38;;;5.30;;
80983;SDS011;73733;53.046;8.724;2024-03-08T06:00:26;9.65;;;5.30;;
80983;SDS011;73733;53.046;8.724;2024-03-08T06:02:51;9.18;;;5.55;;
80983;SDS011;73733;53.046;8.724;2024-03-08T06:05:17;11.87;;;5.57;;
80983;SDS011;73733;53.046;8.724;2024-03-08T06:07:42;10.50;;;5.40;;
80983;SDS011;73733;53.046;8.724;2024-03-08T06:10:08;9.88;;;5.13;;
80983;SDS011;73733;53.046;8.724;2024-03-08T06:12:35;9.43;;;5.53;;
80983;SDS011;73733;53.046;8.724;2024-03-08T06:15:05;8.73;;;5.35;;
80983;SDS011;73733;53.046;8.724;2024-03-08T06:17:31;10.40;;;5.45;;
80983;SDS011;73733;53.046;8.724;2024-03-08T06:19:56;9.70;;;5.90;;
80983;SDS011;73733;53.046;8.724;2024-03-08T06:22:21;9.83;;;5.73;;
80983;SDS011;73733;53.046;8.724;2024-03-08T06:24:47;9.27;;;4.87;;
80983;SDS011;73733;53.046;8.724;2024-03-08T06:27:12;11.70;;;5.30;;
80983;SDS011;73733;53.046;8.724;2024-03-08T06:29:38;8.95;;;6.18;;
80983;SDS011;73733;53.046;8.724;2024-03-08T06:32:04;10.82;;;5.60;;
80983;SDS011;73733;53.046;8.724;2024-03-08T06:34:32;9.35;;;5.68;;
80983;SDS011;73733;53.046;8.724;2024-03-08T06:36:59;8.75;;;5.55;;
80983;SDS011;73733;53.046;8.724;2024-03-08T06:39:25;10.43;;;5.32;;
80983;SDS011;73733;53.046;8.724;2024-03-08T06:41:51;10.48;;;5.53;;
80983;SDS011;73733;53.046;8.724;2024-03-08T06:44:16;9.57;;;6.17;;
80983;SDS011;73733;53.046;8.724;2024-03-08T06:46:42;10.03;;;5.90;;
80983;SDS011;73733;53.046;8.724;2024-03-08T06:49:07;10.20;;;5.97;;
80983;SDS011;73733;53.046;8.724;2024-03-08T06:51:34;10.52;;;5.68;;
80983;SDS011;73733;53.046;8.724;2024-03-08T06:53:59;10.53;;;6.47;;
80983;SDS011;73733;53.046;8.724;2024-03-08T06:56:24;12.13;;;6.57;;
80983;SDS011;73733;53.046;8.724;2024-03-08T06:58:50;10.88;;;5.72;;
80983;SDS011;73733;53.046;8.724;2024-03-08T07:01:16;11.73;;;6.63;;
80983;SDS011;73733;53.046;8.724;2024-03-08T07:03:42;10.23;;;6.03;;
80983;SDS011;73733;53.046;8.724;2024-03-08T07:06:10;10.05;;;5.82;;
80983;SDS011;73733;53.046;8.724;2024-03-08T07:08:35;10.55;;;7.00;;
80983;SDS011;73733;53.046;8.724;2024-03-08T07:11:01;9.03;;;5.43;;
80983;SDS011;73733;53.046;8.724;2024-03-08T07:13:26;8.73;;;5.45;;
80983;SDS011;73733;53.046;8.724;2024-03-08T07:15:54;10.07;;;6.07;;
80983;SDS011;73733;53.046;8.724;2024-03-08T07:18:20;10.55;;;5.95;;
80983;SDS011;73733;53.046;8.724;2024-03-08T07:20:48;10.60;;;5.38;;
80983;SDS011;73733;53.046;8.724;2024-03-08T07:23:14;8.85;;;5.40;;
80983;SDS011;73733;53.046;8.724;2024-03-08T07:25:59;13.38;;;6.90;;
80983;SDS011;73733;53.046;8.724;2024-03-08T07:28:26;10.55;;;6.22;;
80983;SDS011;73733;53.046;8.724;2024-03-08T07:30:52;9.93;;;6.40;;
80983;SDS011;73733;53.046;8.724;2024-03-08T07:33:25;9.25;;;5.18;;
80983;SDS011;73733;53.046;8.724;2024-03-08T07:35:51;11.00;;;6.30;;
80983;SDS011;73733;53.046;8.724;2024-03-08T07:38:16;11.93;;;6.07;;
80983;SDS011;73733;53.046;8.724;2024-03-08T07:40:41;9.40;;;5.13;;
80983;SDS011;73733;53.046;8.724;2024-03-08T07:43:10;10.15;;;5.65;;
80983;SDS011;73733;53.046;8.724;2024-03-08T07:45:36;8.23;;;5.30;;
80983;SDS011;73733;53.046;8.724;2024-03-08T07:48:02;9.38;;;5.95;;
80983;SDS011;73733;53.046;8.724;2024-03-08T07:50:28;9.35;;;5.70;;
80983;SDS011;73733;53.046;8.724;2024-03-08T07:52:53;10.38;;;5.68;;
80983;SDS011;73733;53.046;8.724;2024-03-08T07:55:19;9.98;;;6.38;;
80983;SDS011;73733;53.046;8.724;2024-03-08T07:57:45;8.77;;;5.07;;
80983;SDS011;73733;53.046;8.724;2024-03-08T08:00:10;10.13;;;5.97;;
80983;SDS011;73733;53.046;8.724;2024-03-08T08:02:36;9.35;;;5.35;;
80983;SDS011;73733;53.046;8.724;2024-03-08T08:05:01;9.18;;;5.80;;
80983;SDS011;73733;53.046;8.724;2024-03-08T08:07:27;9.27;;;5.43;;
80983;SDS011;73733;53.046;8.724;2024-03-08T08:09:52;10.73;;;6.32;;
80983;SDS011;73733;53.046;8.724;2024-03-08T08:12:18;9.55;;;6.00;;
80983;SDS011;73733;53.046;8.724;2024-03-08T08:14:43;9.03;;;5.23;;
80983;SDS011;73733;53.046;8.724;2024-03-08T08:17:08;10.53;;;5.90;;
80983;SDS011;73733;53.046;8.724;2024-03-08T08:19:34;9.97;;;4.90;;
80983;SDS011;73733;53.046;8.724;2024-03-08T08:22:00;10.82;;;5.53;;
80983;SDS011;73733;53.046;8.724;2024-03-08T08:24:28;10.65;;;5.68;;
80983;SDS011;73733;53.046;8.724;2024-03-08T08:26:54;15.27;;;7.80;;
80983;SDS011;73733;53.046;8.724;2024-03-08T08:29:19;10.57;;;6.30;;
80983;SDS011;73733;53.046;8.724;2024-03-08T08:31:45;9.23;;;6.50;;
80983;SDS011;73733;53.046;8.724;2024-03-08T08:34:11;10.25;;;6.00;;
80983;SDS011;73733;53.046;8.724;2024-03-08T08:36:37;8.85;;;5.10;;
80983;SDS011;73733;53.046;8.724;2024-03-08T08:39:03;11.10;;;6.30;;
80983;SDS011;73733;53.046;8.724;2024-03-08T08:41:29;8.48;;;5.82;;
80983;SDS011;73733;53.046;8.724;2024-03-08T08:43:54;9.13;;;5.30;;
80983;SDS011;73733;53.046;8.724;2024-03-08T08:46:19;9.43;;;4.77;;
80983;SDS011;73733;53.046;8.724;2024-03-08T08:48:46;10.45;;;6.32;;
80983;SDS011;73733;53.046;8.724;2024-03-08T08:51:11;9.77;;;5.90;;
80983;SDS011;73733;53.046;8.724;2024-03-08T08:53:40;11.23;;;6.53;;
80983;SDS011;73733;53.046;8.724;2024-03-08T08:56:08;8.40;;;5.60;;
80983;SDS011;73733;53.046;8.724;2024-03-08T08:58:34;10.50;;;5.93;;
80983;SDS011;73733;53.046;8.724;2024-03-08T09:00:59;8.67;;;5.00;;
80983;SDS011;73733;53.046;8.724;2024-03-08T09:03:24;9.93;;;5.95;;
80983;SDS011;73733;53.046;8.724;2024-03-08T09:05:52;10.98;;;6.15;;
80983;SDS011;73733;53.046;8.724;2024-03-08T09:08:17;9.17;;;6.47;;
80983;SDS011;73733;53.046;8.724;2024-03-08T09:10:43;10.35;;;6.10;;
80983;SDS011;73733;53.046;8.724;2024-03-08T09:13:08;8.43;;;5.80;;
80983;SDS011;73733;53.046;8.724;2024-03-08T09:15:35;9.95;;;6.50;;
80983;SDS011;73733;53.046;8.724;2024-03-08T09:18:01;8.73;;;5.80;;
80983;SDS011;73733;53.046;8.724;2024-03-08T09:20:27;9.13;;;6.25;;
80983;SDS011;73733;53.046;8.724;2024-03-08T09:22:53;10.40;;;6.43;;
80983;SDS011;73733;53.046;8.724;2024-03-08T09:25:19;8.50;;;5.78;;
80983;SDS011;73733;53.046;8.724;2024-03-08T09:27:45;10.57;;;5.22;;
80983;SDS011;73733;53.046;8.724;2024-03-08T09:30:11;11.02;;;6.93;;
80983;SDS011;73733;53.046;8.724;2024-03-08T09:32:38;11.70;;;6.80;;
80983;SDS011;73733;53.046;8.724;2024-03-08T09:35:03;10.17;;;6.00;;
80983;SDS011;73733;53.046;8.724;2024-03-08T09:37:32;8.68;;;6.32;;
80983;SDS011;73733;53.046;8.724;2024-03-08T09:39:57;10.27;;;6.17;;
80983;SDS011;73733;53.046;8.724;2024-03-08T09:42:24;8.80;;;5.53;;
80983;SDS011;73733;53.046;8.724;2024-03-08T09:44:49;8.17;;;5.83;;
80983;SDS011;73733;53.046;8.724;2024-03-08T09:47:14;9.43;;;6.20;;
80983;SDS011;73733;53.046;8.724;2024-03-08T09:49:41;11.00;;;6.55;;
80983;SDS011;73733;53.046;8.724;2024-03-08T09:52:07;11.63;;;6.65;;
80983;SDS011;73733;53.046;8.724;2024-03-08T09:54:32;9.43;;;6.40;;
80983;SDS011;73733;53.046;8.724;2024-03-08T09:56:58;10.15;;;6.13;;
80983;SDS011;73733;53.046;8.724;2024-03-08T09:59:24;7.57;;;5.63;;
80983;SDS011;73733;53.046;8.724;2024-03-08T10:01:52;10.40;;;6.43;;
80983;SDS011;73733;53.046;8.724;2024-03-08T10:04:17;9.02;;;5.80;;
80983;SDS011;73733;53.046;8.724;2024-03-08T10:06:45;9.38;;;5.90;;
80983;SDS011;73733;53.046;8.724;2024-03-08T10:11:37;8.07;;;5.67;;
80983;SDS011;73733;53.046;8.724;2024-03-08T10:14:03;10.50;;;7.18;;
80983;SDS011;73733;53.046;8.724;2024-03-08T10:16:31;11.00;;;6.78;;
80983;SDS011;73733;53.046;8.724;2024-03-08T10:18:56;9.07;;;5.97;;
80983;SDS011;73733;53.046;8.724;2024-03-08T10:21:22;10.85;;;5.93;;
80983;SDS011;73733;53.046;8.724;2024-03-08T10:23:47;10.02;;;6.25;;
80983;SDS011;73733;53.046;8.724;2024-03-08T10:26:13;8.98;;;6.00;;
80983;SDS011;73733;53.046;8.724;2024-03-08T10:28:40;8.88;;;6.35;;
80983;SDS011;73733;53.046;8.724;2024-03-08T10:31:06;11.00;;;6.65;;
80983;SDS011;73733;53.046;8.724;2024-03-08T10:33:32;9.03;;;6.00;;
80983;SDS011;73733;53.046;8.724;2024-03-08T10:35:58;9.93;;;6.85;;
80983;SDS011;73733;53.046;8.724;2024-03-08T10:38:24;9.52;;;6.28;;
80983;SDS011;73733;53.046;8.724;2024-03-08T10:40:51;10.90;;;6.65;;
80983;SDS011;73733;53.046;8.724;2024-03-08T10:43:22;8.25;;;5.75;;
80983;SDS011;73733;53.046;8.724;2024-03-08T10:45:59;9.68;;;6.30;;
80983;SDS011;73733;53.046;8.724;2024-03-08T10:48:43;9.00;;;5.90;;
80983;SDS011;73733;53.046;8.724;2024-03-08T10:51:09;7.97;;;5.38;;
80983;SDS011;73733;53.046;8.724;2024-03-08T10:53:36;10.57;;;6.55;;
80983;SDS011;73733;53.046;8.724;2024-03-08T10:56:06;7.95;;;6.03;;
80983;SDS011;73733;53.046;8.724;2024-03-08T10:58:32;9.05;;;6.45;;
80983;SDS011;73733;53.046;8.724;2024-03-08T11:00:59;10.43;;;5.90;;
80983;SDS011;73733;53.046;8.724;2024-03-08T11:06:05;9.85;;;6.50;;
80983;SDS011;73733;53.046;8.724;2024-03-08T11:08:31;8.05;;;5.80;;
80983;SDS011;73733;53.046;8.724;2024-03-08T11:10:56;7.55;;;5.38;;
80983;SDS011;73733;53.046;8.724;2024-03-08T11:13:43;8.47;;;6.37;;
80983;SDS011;73733;53.046;8.724;2024-03-08T11:16:13;8.55;;;4.97;;
80983;SDS011;73733;53.046;8.724;2024-03-08T11:19:01;7.35;;;5.28;;
80983;SDS011;73733;53.046;8.724;2024-03-08T11:21:31;6.78;;;5.35;;
80983;SDS011;73733;53.046;8.724;2024-03-08T11:24:02;6.20;;;4.75;;
80983;SDS011;73733;53.046;8.724;2024-03-08T11:26:31;5.78;;;4.80;;
80983;SDS011;73733;53.046;8.724;2024-03-08T11:29:41;5.20;;;4.57;;
80983;SDS011;73733;53.046;8.724;2024-03-08T11:34:35;5.32;;;4.18;;
80983;SDS011;73733;53.046;8.724;2024-03-08T11:37:04;5.30;;;4.75;;
80983;SDS011;73733;53.046;8.724;2024-03-08T11:39:30;6.47;;;4.63;;
80983;SDS011;73733;53.046;8.724;2024-03-08T11:41:56;5.60;;;4.90;;
80983;SDS011;73733;53.046;8.724;2024-03-08T11:44:26;5.55;;;4.57;;
80983;SDS011;73733;53.046;8.724;2024-03-08T11:46:53;5.13;;;4.30;;
80983;SDS011;73733;53.046;8.724;2024-03-08T11:49:19;6.15;;;4.82;;
80983;SDS011;73733;53.046;8.724;2024-03-08T11:51:45;6.35;;;4.70;;
80983;SDS011;73733;53.046;8.724;2024-03-08T11:54:11;5.40;;;4.25;;
80983;SDS011;73733;53.046;8.724;2024-03-08T11:56:38;5.32;;;4.18;;
80983;SDS011;73733;53.046;8.724;2024-03-08T11:59:03;6.00;;;4.57;;
80983;SDS011;73733;53.046;8.724;2024-03-08T12:01:30;5.70;;;5.03;;
80983;SDS011;73733;53.046;8.724;2024-03-08T12:03:56;5.47;;;4.85;;
80983;SDS011;73733;53.046;8.724;2024-03-08T12:06:24;4.85;;;4.40;;
80983;SDS011;73733;53.046;8.724;2024-03-08T12:08:49;7.60;;;5.25;;
80983;SDS011;73733;53.046;8.724;2024-03-08T12:13:42;4.68;;;3.80;;
80983;SDS011;73733;53.046;8.724;2024-03-08T12:16:11;5.65;;;4.18;;
80983;SDS011;73733;53.046;8.724;2024-03-08T12:18:37;5.05;;;4.22;;
80983;SDS011;73733;53.046;8.724;2024-03-08T12:21:04;5.43;;;4.10;;
80983;SDS011;73733;53.046;8.724;2024-03-08T12:23:33;4.95;;;4.43;;
80983;SDS011;73733;53.046;8.724;2024-03-08T12:26:09;6.18;;;4.57;;
80983;SDS011;73733;53.046;8.724;2024-03-08T12:28:38;5.93;;;4.43;;
80983;SDS011;73733;53.046;8.724;2024-03-08T12:31:03;5.28;;;4.65;;
80983;SDS011;73733;53.046;8.724;2024-03-08T12:33:33;5.03;;;4.53;;
80983;SDS011;73733;53.046;8.724;2024-03-08T12:35:59;5.60;;;4.72;;
80983;SDS011;73733;53.046;8.724;2024-03-08T12:38:27;5.20;;;4.30;;
80983;SDS011;73733;53.046;8.724;2024-03-08T12:40:58;5.85;;;4.60;;
80983;SDS011;73733;53.046;8.724;2024-03-08T12:43:23;5.47;;;4.32;;
80983;SDS011;73733;53.046;8.724;2024-03-08T12:45:49;6.00;;;4.80;;
80983;SDS011;73733;53.046;8.724;2024-03-08T12:48:15;6.40;;;5.10;;
80983;SDS011;73733;53.046;8.724;2024-03-08T12:50:40;5.63;;;5.00;;
80983;SDS011;73733;53.046;8.724;2024-03-08T12:53:08;5.50;;;4.72;;
80983;SDS011;73733;53.046;8.724;2024-03-08T12:55:33;5.45;;;4.43;;
80983;SDS011;73733;53.046;8.724;2024-03-08T12:57:58;5.53;;;4.97;;
80983;SDS011;73733;53.046;8.724;2024-03-08T13:00:25;5.22;;;4.50;;
80983;SDS011;73733;53.046;8.724;2024-03-08T13:02:53;6.05;;;4.88;;
80983;SDS011;73733;53.046;8.724;2024-03-08T13:05:18;6.72;;;5.72;;
80983;SDS011;73733;53.046;8.724;2024-03-08T13:07:45;6.15;;;5.15;;
80983;SDS011;73733;53.046;8.724;2024-03-08T13:10:11;5.47;;;4.97;;
80983;SDS011;73733;53.046;8.724;2024-03-08T13:12:45;5.78;;;4.88;;
80983;SDS011;73733;53.046;8.724;2024-03-08T13:15:11;6.00;;;5.00;;
80983;SDS011;73733;53.046;8.724;2024-03-08T13:17:39;5.47;;;4.75;;
80983;SDS011;73733;53.046;8.724;2024-03-08T13:20:05;5.77;;;5.17;;
80983;SDS011;73733;53.046;8.724;2024-03-08T13:22:32;5.85;;;5.25;;
80983;SDS011;73733;53.046;8.724;2024-03-08T13:24:58;5.43;;;4.83;;
80983;SDS011;73733;53.046;8.724;2024-03-08T13:27:25;6.00;;;5.00;;
80983;SDS011;73733;53.046;8.724;2024-03-08T13:29:51;6.22;;;4.93;;
80983;SDS011;73733;53.046;8.724;2024-03-08T13:32:17;5.03;;;4.50;;
80983;SDS011;73733;53.046;8.724;2024-03-08T13:34:45;6.28;;;5.35;;
80983;SDS011;73733;53.046;8.724;2024-03-08T13:37:12;5.80;;;5.00;;
80983;SDS011;73733;53.046;8.724;2024-03-08T13:39:39;5.32;;;4.38;;
80983;SDS011;73733;53.046;8.724;2024-03-08T13:42:11;6.03;;;5.25;;
80983;SDS011;73733;53.046;8.724;2024-03-08T13:44:47;6.15;;;5.53;;
80983;SDS011;73733;53.046;8.724;2024-03-08T13:47:14;5.53;;;5.00;;
80983;SDS011;73733;53.046;8.724;2024-03-08T13:49:40;7.22;;;5.90;;
80983;SDS011;73733;53.046;8.724;2024-03-08T13:52:05;6.45;;;5.35;;
80983;SDS011;73733;53.046;8.724;2024-03-08T13:54:31;5.78;;;5.20;;
80983;SDS011;73733;53.046;8.724;2024-03-08T13:56:56;5.45;;;4.88;;
80983;SDS011;73733;53.046;8.724;2024-03-08T14:01:48;5.27;;;4.30;;
80983;SDS011;73733;53.046;8.724;2024-03-08T14:04:16;5.30;;;4.68;;
80983;SDS011;73733;53.046;8.724;2024-03-08T14:07:06;4.97;;;4.43;;
80983;SDS011;73733;53.046;8.724;2024-03-08T14:09:33;5.72;;;4.63;;
80983;SDS011;73733;53.046;8.724;2024-03-08T14:12:02;5.80;;;4.90;;
80983;SDS011;73733;53.046;8.724;2024-03-08T14:14:32;6.57;;;5.15;;
80983;SDS011;73733;53.046;8.724;2024-03-08T14:17:00;4.95;;;4.10;;
80983;SDS011;73733;53.046;8.724;2024-03-08T14:19:26;5.65;;;4.72;;
80983;SDS011;73733;53.046;8.724;2024-03-08T14:21:52;5.38;;;4.85;;
80983;SDS011;73733;53.046;8.724;2024-03-08T14:24:18;5.15;;;4.63;;
80983;SDS011;73733;53.046;8.724;2024-03-08T14:26:44;6.50;;;4.70;;
80983;SDS011;73733;53.046;8.724;2024-03-08T14:29:09;5.28;;;4.65;;
80983;SDS011;73733;53.046;8.724;2024-03-08T14:31:35;5.40;;;4.82;;
80983;SDS011;73733;53.046;8.724;2024-03-08T14:34:01;6.25;;;4.30;;
80983;SDS011;73733;53.046;8.724;2024-03-08T14:36:28;5.15;;;4.35;;
80983;SDS011;73733;53.046;8.724;2024-03-08T14:38:53;5.00;;;4.23;;
80983;SDS011;73733;53.046;8.724;2024-03-08T14:41:18;4.83;;;4.10;;
80983;SDS011;73733;53.046;8.724;2024-03-08T14:43:44;5.10;;;4.38;;
80983;SDS011;73733;53.046;8.724;2024-03-08T14:46:12;5.65;;;5.03;;
80983;SDS011;73733;53.046;8.724;2024-03-08T14:48:54;4.47;;;4.03;;
80983;SDS011;73733;53.046;8.724;2024-03-08T14:51:21;5.38;;;4.13;;
80983;SDS011;73733;53.046;8.724;2024-03-08T14:53:51;5.53;;;4.53;;
80983;SDS011;73733;53.046;8.724;2024-03-08T14:56:17;5.28;;;4.65;;
80983;SDS011;73733;53.046;8.724;2024-03-08T14:58:43;6.00;;;4.87;;